Frankton, Indiana
Current Conditions -  °F | °C
As of 11:15 AM on Thursday 29 Jan 2015 (Local Time) from KMZZ Reporting Station
Overcast Overcast  
Wind Chill: -1°   Ceiling: 1600
Heat Index:   Visibility: 10mi
Dew Point:   Wind: 15mph
Humidity: 79%   Direction: 240°WSW
Pressure: 29.77"   Gusts: 21mph
Location:  40.22°N, 85.78°W
Report Text: KMZZ 291615Z AUTO 24013G18KT 10SM OVC016 04/00 A2977 RMK AO2 T00350001
Loading
Personal Weather Stations






























Interactive Weather Map New forecast layout! Learn more

10-Day Weather Forecast

Advertisements
Track Severe Weather on mobile